Airfield :
LOGIN :

Register | Disclaimer

   EN    FR    IT 

 










Legend :    VFR   Marginal VFR   IFR   Intensive IFR   Very Intensive IFR
Visi :
Ceiling :
>= 8 km
>= 3000ft
5 to 8 km
1000 to 3000 ft
1500m to 5 km
500 to 1000 ft
800 to 1500m
200 to 500 ft
< 800m
< 200 ft
Symbols :   Thunderstorms  Fog  Heavy snow  Heavy precipitations  Wind > 20 kt
SIGMETs :     Misc.  Thunderstorms  Icing  Turbulence  Mountain Waves  Volcanic Ashes







- Airport Elevation : 106 ft
- IATA code : XDA
- Download approach charts


LFBY - Dax Seyresse

CURRENT METAR :
  • 131300Z 21010KT 9999 FEW033 SCT050 BKN100 13/06 Q1017

EXPIRED METARs :
  • 131200Z 22009KT 190V250 9999 FEW033 SCT050 BKN100 12/06 Q1018
  • 131100Z 21009KT 9999 FEW030 SCT050 11/06 Q1019

TAF TAF LFBY
Valid from the 13 at 09:00 until the 13 at 18:00 UTC


130800Z 1309/1318 20010KT 9000 SCT020 BKN035
TEMPO 1309/1318 21015G25KT 4000 RADZ SCT015 BKN025
No reported NOTAMs for that airfield.



MET'MAP, your aeronautical weather chart ! - Copyright ORBIFLY December 2007 - Disclaimer

ORBIFLY MET'MAP TEAM :

Programming & Development : Alexandra Zaïnal
Concept & Development : Baudouin d'Aumeries
Co-Development & Prog : Marc-Olivier Méhu
Technical & hardware support : Manuel Goepfert

Contact : metmap@orbifly.com




SOURCES & CREDITS :

   NOAA